createdAt,value
2023-01-06T00:01:36.514Z,99746.91
2023-01-06T00:04:05.582Z,99739.25
2023-01-06T00:06:34.614Z,99739.47
2023-01-06T00:09:06.223Z,99749.28
2023-01-06T00:11:35.739Z,99770.81
2023-01-06T00:14:04.175Z,99758.44
2023-01-06T00:16:33.282Z,99760.22
2023-01-06T00:19:02.302Z,99767.88
2023-01-06T00:21:30.880Z,99760.31
2023-01-06T00:23:59.258Z,99769.91
2023-01-06T00:26:27.484Z,99772.97
2023-01-06T00:28:59.012Z,99779.84
2023-01-06T00:31:27.702Z,99772.81
2023-01-06T00:33:57.696Z,99782.75
2023-01-06T00:36:26.642Z,99786.72
2023-01-06T00:38:54.764Z,99780.25
2023-01-06T00:41:40.782Z,99785.81
2023-01-06T00:44:10.323Z,99769.56
2023-01-06T00:46:39.405Z,99785.13
2023-01-06T00:49:08.076Z,99789.97
2023-01-06T00:51:37.710Z,99789.88
2023-01-06T00:54:06.100Z,99787.72
2023-01-06T00:56:36.776Z,99791.91
2023-01-06T00:59:05.586Z,99792.03
2023-01-06T01:01:36.011Z,99795.75
2023-01-06T01:04:04.599Z,99803.78
2023-01-06T01:06:33.418Z,99809.41
2023-01-06T01:09:02.672Z,99806.59
2023-01-06T01:11:49.201Z,99819.69
2023-01-06T01:14:18.908Z,99816.16
2023-01-06T01:16:48.654Z,99811.44
2023-01-06T01:19:18.031Z,99815.47
2023-01-06T01:21:46.289Z,99805.66
2023-01-06T01:24:14.410Z,99813.78
2023-01-06T01:26:42.768Z,99808.38
2023-01-06T01:29:13.434Z,99812.63
2023-01-06T01:31:41.830Z,99808.22
2023-01-06T01:34:12.767Z,99811.50
2023-01-06T01:36:42.046Z,99815.34
2023-01-06T01:39:10.978Z,99824.69
2023-01-06T01:41:39.547Z,99823.22
2023-01-06T01:44:40.827Z,99818.16
2023-01-06T01:47:09.825Z,99825.59
2023-01-06T01:49:42.293Z,99815.00
2023-01-06T01:52:12.082Z,99799.63
2023-01-06T01:54:41.630Z,99800.75
2023-01-06T01:57:13.605Z,99789.56
2023-01-06T01:59:43.959Z,99787.31
2023-01-06T02:02:15.862Z,99794.19
2023-01-06T02:04:50.281Z,99795.44
2023-01-06T02:07:19.343Z,99798.84
2023-01-06T02:09:57.019Z,99783.34
2023-01-06T02:12:25.200Z,99787.22
2023-01-06T02:14:54.145Z,99788.44
2023-01-06T02:17:43.269Z,99791.25
2023-01-06T02:20:53.202Z,99782.97
2023-01-06T02:23:51.538Z,99792.09
2023-01-06T02:26:52.701Z,99787.75
2023-01-06T02:29:44.443Z,99790.63
2023-01-06T02:32:31.714Z,99771.53
2023-01-06T02:35:14.753Z,99769.13
2023-01-06T02:37:57.059Z,99770.19
2023-01-06T02:40:42.550Z,99758.19
2023-01-06T02:43:16.988Z,99747.72
2023-01-06T02:45:56.203Z,99739.66
2023-01-06T02:48:37.537Z,99744.03
2023-01-06T02:51:10.815Z,99745.69
2023-01-06T02:53:50.311Z,99752.72
2023-01-06T02:56:23.211Z,99744.41
2023-01-06T02:58:57.294Z,99736.50
2023-01-06T03:01:30.043Z,99725.41
2023-01-06T03:04:03.632Z,99723.53
2023-01-06T03:06:35.365Z,99736.59
2023-01-06T03:09:06.384Z,99726.56
2023-01-06T03:11:36.151Z,99727.03
2023-01-06T03:14:11.472Z,99724.38
2023-01-06T03:16:39.548Z,99711.59
2023-01-06T03:19:09.272Z,99706.84
2023-01-06T03:21:41.648Z,99702.56
2023-01-06T03:24:11.918Z,99683.13
2023-01-06T03:26:40.669Z,99698.56
2023-01-06T03:29:11.960Z,99683.25
2023-01-06T03:31:48.976Z,99694.81
2023-01-06T03:34:27.796Z,99695.88
2023-01-06T03:37:06.280Z,99691.94
2023-01-06T03:39:42.771Z,99688.78
2023-01-06T03:42:44.230Z,99692.56
2023-01-06T03:45:25.745Z,99698.69
2023-01-06T03:47:57.565Z,99694.66
2023-01-06T03:50:34.068Z,99672.72
2023-01-06T03:53:14.571Z,99682.75
2023-01-06T03:55:48.102Z,99682.75
2023-01-06T03:58:18.448Z,99696.25
2023-01-06T04:00:47.121Z,99702.03
2023-01-06T04:03:16.122Z,99702.81
2023-01-06T04:05:45.606Z,99712.06
2023-01-06T04:08:13.668Z,99714.38
2023-01-06T04:10:41.834Z,99721.97
2023-01-06T04:13:08.929Z,99728.09
2023-01-06T04:15:37.022Z,99755.13
2023-01-06T04:18:05.175Z,99753.47
2023-01-06T04:20:33.336Z,99767.91
2023-01-06T04:23:02.829Z,99756.03
2023-01-06T04:25:30.848Z,99757.25
2023-01-06T04:27:58.911Z,99754.00
2023-01-06T04:30:27.438Z,99748.91
2023-01-06T04:32:55.637Z,99750.84
2023-01-06T04:35:23.677Z,99763.72
2023-01-06T04:37:51.697Z,99760.56
2023-01-06T04:40:21.201Z,99781.03
2023-01-06T04:43:07.756Z,99761.94
2023-01-06T04:45:36.851Z,99784.34
2023-01-06T04:48:05.379Z,99799.72
2023-01-06T04:50:33.512Z,99787.28
2023-01-06T04:53:01.677Z,99775.66
2023-01-06T04:55:31.419Z,99784.13
2023-01-06T04:57:59.782Z,99788.09
2023-01-06T05:00:27.882Z,99841.16
2023-01-06T05:02:55.950Z,99807.13
2023-01-06T05:05:24.389Z,99844.41
2023-01-06T05:07:55.272Z,99838.09
2023-01-06T05:10:23.520Z,99842.53
2023-01-06T05:12:53.223Z,99844.72
2023-01-06T05:15:21.448Z,99853.41
2023-01-06T05:17:49.578Z,99855.16
2023-01-06T05:20:17.793Z,99849.19
2023-01-06T05:22:46.154Z,99845.94
2023-01-06T05:25:14.219Z,99853.94
2023-01-06T05:27:42.713Z,99854.72
2023-01-06T05:30:13.957Z,99858.56
2023-01-06T05:32:42.042Z,99870.56
2023-01-06T05:35:11.060Z,99878.69
2023-01-06T05:37:39.167Z,99872.59
2023-01-06T05:40:08.599Z,99891.19
2023-01-06T05:42:36.672Z,99894.28
2023-01-06T05:45:05.206Z,99899.69
2023-01-06T05:47:34.732Z,99911.66
2023-01-06T05:50:03.460Z,99925.88
2023-01-06T05:52:31.538Z,99923.72
2023-01-06T05:54:59.684Z,99938.66
2023-01-06T05:57:27.820Z,99948.03
2023-01-06T05:59:55.983Z,99949.72
2023-01-06T06:02:24.136Z,99954.81
2023-01-06T06:04:53.711Z,99956.72
2023-01-06T06:07:21.838Z,99953.34
2023-01-06T06:09:49.938Z,99961.03
2023-01-06T06:12:18.068Z,99963.97
2023-01-06T06:14:46.242Z,99962.03
2023-01-06T06:17:14.385Z,99966.06
2023-01-06T06:19:42.668Z,99968.22
2023-01-06T06:22:12.750Z,99971.28
2023-01-06T06:24:40.935Z,99979.50
2023-01-06T06:27:09.348Z,99979.97
2023-01-06T06:29:37.472Z,99980.75
2023-01-06T06:32:05.720Z,99978.03
2023-01-06T06:34:33.854Z,99983.91
2023-01-06T06:37:02.083Z,99987.78
2023-01-06T06:39:31.706Z,99985.84
2023-01-06T06:41:59.791Z,99991.47
2023-01-06T06:44:28.059Z,99990.47
2023-01-06T06:46:56.184Z,99998.16
2023-01-06T06:49:24.216Z,99998.97
2023-01-06T06:51:53.804Z,99999.06
2023-01-06T06:54:22.935Z,100002.78
2023-01-06T06:56:52.764Z,100016.78
2023-01-06T06:59:21.008Z,100017.75
2023-01-06T07:01:49.303Z,100014.69
2023-01-06T07:04:17.561Z,100006.78
2023-01-06T07:06:45.850Z,100004.63
2023-01-06T07:09:13.978Z,100017.06
2023-01-06T07:11:42.309Z,100024.50
2023-01-06T07:14:12.041Z,100019.19
2023-01-06T07:16:40.528Z,100011.28
2023-01-06T07:19:09.993Z,100020.75
2023-01-06T07:21:39.037Z,100005.13
2023-01-06T07:24:07.555Z,100005.69
2023-01-06T07:26:35.657Z,100000.38
2023-01-06T07:29:03.830Z,99988.59
2023-01-06T07:31:33.478Z,99993.34
2023-01-06T07:34:01.608Z,99984.13
2023-01-06T07:36:29.947Z,99972.25
2023-01-06T07:38:58.164Z,99986.72
2023-01-06T07:41:26.298Z,99994.28
2023-01-06T07:43:54.362Z,99985.34
2023-01-06T07:46:22.575Z,99995.28
2023-01-06T07:48:52.529Z,99987.13
2023-01-06T07:51:20.689Z,99997.38
2023-01-06T07:53:48.966Z,99995.91
2023-01-06T07:56:17.210Z,100013.97
2023-01-06T07:58:45.616Z,100019.84
2023-01-06T08:01:14.123Z,100031.19
2023-01-06T08:03:42.175Z,100027.75
2023-01-06T08:06:14.135Z,100030.56
2023-01-06T08:08:43.866Z,100032.66
2023-01-06T08:11:14.147Z,100048.84
2023-01-06T08:13:42.242Z,100051.22
2023-01-06T08:16:12.031Z,100054.22
2023-01-06T08:18:41.061Z,100058.25
2023-01-06T08:21:12.875Z,100063.38
2023-01-06T08:23:41.097Z,100077.13
2023-01-06T08:26:11.267Z,100087.06
2023-01-06T08:28:39.468Z,100085.66
2023-01-06T08:31:11.777Z,100088.47
2023-01-06T08:33:40.052Z,100087.41
2023-01-06T08:36:10.021Z,100085.06
2023-01-06T08:38:39.585Z,100093.31
2023-01-06T08:41:08.026Z,100097.69
2023-01-06T08:43:36.656Z,100094.28
2023-01-06T08:46:07.483Z,100084.72
2023-01-06T08:48:36.469Z,100091.38
2023-01-06T08:51:05.625Z,100089.59
2023-01-06T08:53:34.397Z,100092.31
2023-01-06T08:56:04.272Z,100083.47
2023-01-06T08:58:32.941Z,100081.00
2023-01-06T09:01:01.140Z,100056.94
2023-01-06T09:03:29.336Z,100056.59
2023-01-06T09:05:59.007Z,100055.28
2023-01-06T09:08:27.321Z,100049.13
2023-01-06T09:10:55.531Z,100037.41
2023-01-06T09:13:25.060Z,100039.16
2023-01-06T09:15:54.912Z,100020.59
2023-01-06T09:18:23.220Z,100015.53
2023-01-06T09:20:51.431Z,100013.59
2023-01-06T09:23:21.063Z,100006.09
2023-01-06T09:25:49.163Z,100003.88
2023-01-06T09:28:17.429Z,99999.66
2023-01-06T09:30:49.763Z,100000.38
2023-01-06T09:33:18.407Z,100018.28
2023-01-06T09:35:47.042Z,100007.13
2023-01-06T09:38:16.100Z,100006.19
2023-01-06T09:40:57.668Z,99997.22
2023-01-06T09:43:35.973Z,100010.34
2023-01-06T09:46:07.616Z,100000.66
2023-01-06T09:48:42.703Z,100000.28
2023-01-06T09:51:19.765Z,99983.94
2023-01-06T09:53:54.148Z,99968.19
2023-01-06T09:56:25.820Z,99977.69
2023-01-06T09:59:00.764Z,99977.34
2023-01-06T10:01:35.010Z,99963.63
2023-01-06T10:04:03.354Z,99981.22
2023-01-06T10:06:35.029Z,99965.72
2023-01-06T10:09:13.667Z,99971.22
2023-01-06T10:11:54.914Z,99974.25
2023-01-06T10:14:38.699Z,99975.47
2023-01-06T10:17:28.131Z,99972.88
2023-01-06T10:20:07.889Z,99976.28
2023-01-06T10:22:48.040Z,99988.03
2023-01-06T10:25:24.782Z,99982.16
2023-01-06T10:27:57.439Z,99981.75
2023-01-06T10:30:33.467Z,99976.41
2023-01-06T10:33:03.777Z,99971.84
2023-01-06T10:35:33.519Z,99973.25
2023-01-06T10:38:08.292Z,99972.47
2023-01-06T10:40:37.185Z,99977.19
2023-01-06T10:43:07.885Z,99990.16
2023-01-06T10:45:40.439Z,99975.66
2023-01-06T10:48:14.275Z,99985.84
2023-01-06T10:50:43.712Z,99985.06
2023-01-06T10:53:13.310Z,99972.22
2023-01-06T10:55:47.648Z,99983.53
2023-01-06T10:58:25.516Z,99957.78
2023-01-06T11:00:59.733Z,99950.03
2023-01-06T11:03:34.233Z,99952.78
2023-01-06T11:06:16.483Z,99939.19
2023-01-06T11:08:47.042Z,99950.94
2023-01-06T11:11:27.977Z,99945.25
2023-01-06T11:13:59.378Z,99936.38
2023-01-06T11:16:30.227Z,99941.00
2023-01-06T11:19:02.194Z,99926.50
2023-01-06T11:21:41.914Z,99926.81
2023-01-06T11:24:20.917Z,99931.94
2023-01-06T11:26:53.748Z,99932.44
2023-01-06T11:29:31.424Z,99921.47
2023-01-06T11:32:04.292Z,99916.75
2023-01-06T11:34:35.687Z,99918.31
2023-01-06T11:37:04.053Z,99914.47
2023-01-06T11:39:35.491Z,99911.41
2023-01-06T11:42:10.520Z,99902.13
2023-01-06T11:44:41.025Z,99914.63
2023-01-06T11:47:16.092Z,99899.13
2023-01-06T11:49:49.926Z,99904.88
2023-01-06T11:52:23.611Z,99888.53
2023-01-06T11:55:00.616Z,99891.69
2023-01-06T11:57:37.011Z,99886.19
2023-01-06T12:00:21.993Z,99895.91
2023-01-06T12:02:54.167Z,99895.56
2023-01-06T12:05:30.905Z,99888.94
2023-01-06T12:07:59.807Z,99896.81
2023-01-06T12:10:36.940Z,99899.94
2023-01-06T12:13:05.048Z,99899.94
2023-01-06T12:15:36.899Z,99898.34
2023-01-06T12:18:12.465Z,99908.97
2023-01-06T12:20:48.407Z,99905.78
2023-01-06T12:23:25.315Z,99907.25
2023-01-06T12:25:57.526Z,99903.13
2023-01-06T12:28:31.633Z,99903.47
2023-01-06T12:31:17.888Z,99898.38
2023-01-06T12:33:55.929Z,99908.50
2023-01-06T12:36:34.506Z,99909.38
2023-01-06T12:39:05.637Z,99919.44
2023-01-06T12:41:39.200Z,99918.22
2023-01-06T12:44:19.385Z,99916.66
2023-01-06T12:46:56.985Z,99914.75
2023-01-06T12:49:34.980Z,99915.19
2023-01-06T12:52:08.209Z,99913.69
2023-01-06T12:54:36.668Z,99926.63
2023-01-06T12:57:23.465Z,99914.91
2023-01-06T13:00:05.412Z,99914.88
2023-01-06T13:02:54.873Z,99916.69
2023-01-06T13:05:32.421Z,99912.75
2023-01-06T13:08:17.040Z,99910.88
2023-01-06T13:10:50.031Z,99922.22
2023-01-06T13:13:41.038Z,99913.19
2023-01-06T13:16:19.134Z,99903.44
2023-01-06T13:19:14.708Z,99902.22
2023-01-06T13:21:45.639Z,99899.84
2023-01-06T13:24:33.751Z,99917.41
2023-01-06T13:27:25.932Z,99898.66
2023-01-06T13:30:08.834Z,99909.16
2023-01-06T13:33:04.532Z,99915.41
2023-01-06T13:36:03.867Z,99932.66
2023-01-06T13:38:58.038Z,99942.69
2023-01-06T13:41:32.711Z,99950.75
2023-01-06T13:44:03.879Z,99965.25
2023-01-06T13:46:35.999Z,99962.91
2023-01-06T13:49:06.634Z,99975.41
2023-01-06T13:51:38.960Z,99988.63
2023-01-06T13:54:07.111Z,99975.34
2023-01-06T13:56:39.028Z,99987.06
2023-01-06T13:59:25.259Z,99982.50
2023-01-06T14:01:55.019Z,99983.19
2023-01-06T14:04:46.470Z,99986.69
2023-01-06T14:07:16.555Z,99978.09
2023-01-06T14:09:50.467Z,99974.44
2023-01-06T14:12:23.298Z,99964.22
2023-01-06T14:14:59.629Z,99975.47
2023-01-06T14:17:38.089Z,99979.38
2023-01-06T14:20:08.371Z,99979.66
2023-01-06T14:22:36.925Z,99983.06
2023-01-06T14:25:08.993Z,99987.34
2023-01-06T14:28:23.430Z,99992.25
2023-01-06T14:30:53.184Z,99989.47
2023-01-06T14:33:31.582Z,99985.81
2023-01-06T14:36:05.161Z,99991.22
2023-01-06T14:38:42.729Z,99991.84
2023-01-06T14:41:21.855Z,99994.06
2023-01-06T14:43:56.813Z,100002.53
2023-01-06T14:46:30.307Z,100000.38
2023-01-06T14:49:02.426Z,100008.03
2023-01-06T14:51:33.109Z,100016.47
2023-01-06T14:54:05.115Z,100016.69
2023-01-06T14:56:35.384Z,100024.31
2023-01-06T14:59:06.926Z,100035.84
2023-01-06T15:01:36.892Z,100027.88
2023-01-06T15:04:06.303Z,100026.59
2023-01-06T15:06:34.485Z,100036.84
2023-01-06T15:09:14.000Z,100040.13
2023-01-06T15:11:43.680Z,100041.97
2023-01-06T15:14:33.538Z,100043.44
2023-01-06T15:17:05.001Z,100043.28
2023-01-06T15:19:34.088Z,100052.69
2023-01-06T15:22:08.128Z,100068.31
2023-01-06T15:24:39.583Z,100067.59
2023-01-06T15:27:10.169Z,100088.75
2023-01-06T15:29:39.737Z,100095.81
2023-01-06T15:32:14.185Z,100108.34
2023-01-06T15:34:47.202Z,100110.81
2023-01-06T15:37:20.414Z,100105.78
2023-01-06T15:39:49.884Z,100095.03
2023-01-06T15:42:26.924Z,100116.66
2023-01-06T15:44:58.279Z,100116.22
2023-01-06T15:47:33.483Z,100116.22
2023-01-06T15:50:04.367Z,100116.03
2023-01-06T15:52:35.552Z,100130.09
2023-01-06T15:55:06.896Z,100132.63
2023-01-06T15:57:38.298Z,100133.19
2023-01-06T16:00:19.688Z,100144.63
2023-01-06T16:02:49.371Z,100146.56
2023-01-06T16:05:35.680Z,100149.50
2023-01-06T16:08:05.950Z,100159.47
2023-01-06T16:10:37.068Z,100168.44
2023-01-06T16:13:15.346Z,100171.59
2023-01-06T16:15:52.132Z,100176.78
2023-01-06T16:18:28.616Z,100173.59
2023-01-06T16:20:57.465Z,100178.81
2023-01-06T16:23:30.862Z,100179.44
2023-01-06T16:26:15.472Z,100177.66
2023-01-06T16:28:48.192Z,100165.44
2023-01-06T16:31:31.020Z,100167.44
2023-01-06T16:34:17.614Z,100178.97
2023-01-06T16:36:45.696Z,100193.66
2023-01-06T16:39:13.812Z,100192.16
2023-01-06T16:42:03.240Z,100193.75
2023-01-06T16:44:34.375Z,100198.50
2023-01-06T16:47:03.888Z,100203.59
2023-01-06T16:49:32.165Z,100196.25
2023-01-06T16:52:01.028Z,100195.91
2023-01-06T16:54:31.113Z,100197.38
2023-01-06T16:56:59.338Z,100205.72
2023-01-06T16:59:33.448Z,100213.22
2023-01-06T17:02:11.331Z,100216.81
2023-01-06T17:04:41.072Z,100215.00
2023-01-06T17:07:14.480Z,100214.69
2023-01-06T17:09:43.103Z,100216.84
2023-01-06T17:12:35.138Z,100221.16
2023-01-06T17:15:03.982Z,100214.94
2023-01-06T17:17:33.553Z,100212.09
2023-01-06T17:20:02.543Z,100207.91
2023-01-06T17:22:32.482Z,100214.59
2023-01-06T17:25:10.699Z,100208.72
2023-01-06T17:27:38.908Z,100213.13
2023-01-06T17:30:15.707Z,100218.88
2023-01-06T17:32:46.718Z,100220.00
2023-01-06T17:35:27.147Z,100223.25
2023-01-06T17:37:55.840Z,100227.63
2023-01-06T17:40:29.646Z,100223.31
2023-01-06T17:43:04.326Z,100224.00
2023-01-06T17:45:32.394Z,100216.66
2023-01-06T17:51:52.122Z,100229.78
2023-01-06T17:54:40.273Z,100228.34
2023-01-06T17:57:18.837Z,100228.88
2023-01-06T17:59:47.413Z,100216.31
2023-01-06T18:02:35.966Z,100212.34
2023-01-06T18:05:34.592Z,100216.19
2023-01-06T18:08:15.030Z,100219.09
2023-01-06T18:10:45.433Z,100215.78
2023-01-06T18:13:16.948Z,100224.59
2023-01-06T18:15:46.958Z,100223.00
2023-01-06T18:18:21.348Z,100217.78
2023-01-06T18:20:54.888Z,100220.50
2023-01-06T18:23:26.990Z,100214.88
2023-01-06T18:26:00.127Z,100214.06
2023-01-06T18:28:28.602Z,100216.59
2023-01-06T18:31:00.967Z,100231.38
2023-01-06T18:33:30.171Z,100229.63
2023-01-06T18:35:58.434Z,100231.97
2023-01-06T18:38:31.186Z,100238.84
2023-01-06T18:40:59.363Z,100241.44
2023-01-06T18:43:30.836Z,100242.88
2023-01-06T18:46:03.252Z,100235.44
2023-01-06T18:48:33.572Z,100227.19
2023-01-06T18:51:03.271Z,100231.34
2023-01-06T18:53:38.164Z,100236.16
2023-01-06T18:56:15.701Z,100230.13
2023-01-06T18:58:47.692Z,100246.84
2023-01-06T19:01:20.842Z,100243.88
2023-01-06T19:03:59.068Z,100251.16
2023-01-06T19:06:40.284Z,100244.31
2023-01-06T19:09:19.245Z,100249.41
2023-01-06T19:11:48.386Z,100234.38
2023-01-06T19:14:19.576Z,100238.22
2023-01-06T19:16:56.716Z,100244.91
2023-01-06T19:19:29.065Z,100237.72
2023-01-06T19:22:14.781Z,100249.34
2023-01-06T19:24:49.313Z,100253.81
2023-01-06T19:27:42.436Z,100249.25
2023-01-06T19:30:39.005Z,100253.50
2023-01-06T19:33:34.965Z,100251.53
2023-01-06T19:36:39.416Z,100237.66
2023-01-06T19:39:34.429Z,100244.34
2023-01-06T19:42:18.072Z,100243.69
2023-01-06T19:44:49.625Z,100248.91
2023-01-06T19:47:21.030Z,100251.16
2023-01-06T19:49:56.503Z,100261.63
2023-01-06T19:52:33.228Z,100258.94
2023-01-06T19:55:16.411Z,100266.94
2023-01-06T19:57:49.517Z,100258.69
2023-01-06T20:00:46.619Z,100255.56
2023-01-06T20:03:28.038Z,100251.91
2023-01-06T20:05:56.210Z,100243.50
2023-01-06T20:08:24.366Z,100257.88
2023-01-06T20:10:52.504Z,100257.94
2023-01-06T20:13:22.269Z,100261.97
2023-01-06T20:15:50.483Z,100269.50
2023-01-06T20:18:18.612Z,100263.34
2023-01-06T20:20:46.870Z,100267.03
2023-01-06T20:23:15.977Z,100270.38
2023-01-06T20:25:44.930Z,100274.69
2023-01-06T20:28:13.211Z,100273.91
2023-01-06T20:30:43.759Z,100277.75
2023-01-06T20:33:13.294Z,100277.56
2023-01-06T20:35:41.350Z,100286.94
2023-01-06T20:38:09.736Z,100287.59
2023-01-06T20:40:45.770Z,100294.41
2023-01-06T20:43:14.912Z,100289.03
2023-01-06T20:45:44.488Z,100288.38
2023-01-06T20:48:12.664Z,100285.19
2023-01-06T20:50:42.798Z,100274.06
2023-01-06T20:53:11.123Z,100273.91
2023-01-06T20:55:39.707Z,100285.84
2023-01-06T20:58:08.004Z,100284.28
2023-01-06T21:00:36.162Z,100283.94
2023-01-06T21:03:05.783Z,100288.41
2023-01-06T21:05:34.788Z,100281.41
2023-01-06T21:08:02.977Z,100286.81
2023-01-06T21:10:31.176Z,100287.28
2023-01-06T21:12:59.481Z,100291.25
2023-01-06T21:15:27.657Z,100291.25
2023-01-06T21:17:55.977Z,100290.88
2023-01-06T21:20:25.698Z,100290.56
2023-01-06T21:22:54.031Z,100298.53
2023-01-06T21:25:22.198Z,100302.69
2023-01-06T21:27:51.472Z,100297.09
2023-01-06T21:30:20.081Z,100292.97
2023-01-06T21:32:49.369Z,100296.63
2023-01-06T21:35:17.812Z,100301.69
2023-01-06T21:37:47.330Z,100287.09
2023-01-06T21:40:16.225Z,100302.53
2023-01-06T21:43:01.650Z,100296.47
2023-01-06T21:45:29.834Z,100292.63
2023-01-06T21:47:58.206Z,100287.09
2023-01-06T21:50:27.063Z,100286.28
2023-01-06T21:52:56.802Z,100293.31
2023-01-06T21:55:26.801Z,100292.34
2023-01-06T21:57:54.958Z,100296.34
2023-01-06T22:00:23.047Z,100294.13
2023-01-06T22:02:54.989Z,100291.75
2023-01-06T22:05:23.872Z,100292.22
2023-01-06T22:07:54.159Z,100292.38
2023-01-06T22:10:25.893Z,100296.78
2023-01-06T22:12:56.673Z,100297.91
2023-01-06T22:15:25.132Z,100297.13
2023-01-06T22:17:58.524Z,100303.97
2023-01-06T22:20:27.300Z,100292.50
2023-01-06T22:22:55.595Z,100292.19
2023-01-06T22:25:25.491Z,100286.47
2023-01-06T22:27:53.579Z,100289.31
2023-01-06T22:30:21.691Z,100290.91
2023-01-06T22:32:50.510Z,100286.47
2023-01-06T22:35:19.243Z,100279.59
2023-01-06T22:37:47.351Z,100282.78
2023-01-06T22:40:16.050Z,100276.94
2023-01-06T22:42:45.598Z,100279.31
2023-01-06T22:45:14.387Z,100276.78
2023-01-06T22:47:42.520Z,100277.25
2023-01-06T22:50:11.577Z,100272.16
2023-01-06T22:52:39.778Z,100275.19
2023-01-06T22:55:09.271Z,100274.25
2023-01-06T22:57:37.710Z,100264.69
2023-01-06T23:00:13.983Z,100265.31
2023-01-06T23:02:42.182Z,100264.84
2023-01-06T23:05:11.705Z,100271.19
2023-01-06T23:07:40.221Z,100261.81
2023-01-06T23:10:09.766Z,100263.25
2023-01-06T23:12:38.758Z,100265.81
2023-01-06T23:15:09.875Z,100262.94
2023-01-06T23:17:38.318Z,100262.94
2023-01-06T23:20:07.430Z,100268.34
2023-01-06T23:22:35.474Z,100261.19
2023-01-06T23:25:03.594Z,100266.44
2023-01-06T23:27:31.793Z,100272.13
2023-01-06T23:29:59.880Z,100264.19
2023-01-06T23:32:29.471Z,100272.13
2023-01-06T23:34:57.483Z,100271.66
2023-01-06T23:37:26.561Z,100273.06
2023-01-06T23:39:55.666Z,100270.69
2023-01-06T23:42:23.762Z,100272.75
2023-01-06T23:44:51.904Z,100276.38
2023-01-06T23:47:19.985Z,100266.84
2023-01-06T23:49:49.586Z,100275.09
2023-01-06T23:52:23.342Z,100273.03
2023-01-06T23:54:51.460Z,100275.38
2023-01-06T23:57:19.550Z,100278.88
2023-01-06T23:59:47.638Z,100285.03
